Time;durP1;ratioP1;P1;durP2;ratioP2;P2;SDS_P1;SDS_P2;PMS_P1;PMS_P2;Temp;Humidity;BMP_temperature;BMP_pressure;BME280_temperature;BME280_humidity;BME280_pressure;Samples;Min_cycle;Max_cycle;Signal;HPM_P1;HPM_P2
2023/08/16 00:02:08;;;;;;;17.90;9.70;;;;;;;;;;4951096;28;20027;-57
2023/08/16 00:04:34;;;;;;;18.50;9.63;;;;;;;;;;4949927;28;20024;-58
2023/08/16 00:07:00;;;;;;;17.23;9.68;;;;;;;;;;4950160;28;20024;-59
2023/08/16 00:09:27;;;;;;;18.08;8.93;;;;;;;;;;4951083;28;20055;-59
2023/08/16 00:11:53;;;;;;;18.40;9.43;;;;;;;;;;4951031;28;20050;-59
2023/08/16 00:14:19;;;;;;;16.40;8.77;;;;;;;;;;4951327;28;20065;-59
2023/08/16 00:16:45;;;;;;;17.10;8.73;;;;;;;;;;4951303;28;20399;-60
2023/08/16 00:19:11;;;;;;;17.45;9.25;;;;;;;;;;4950019;28;20038;-60
2023/08/16 00:21:37;;;;;;;17.15;9.25;;;;;;;;;;4951093;28;20504;-60
2023/08/16 00:24:04;;;;;;;17.17;9.48;;;;;;;;;;4950760;28;20035;-60
2023/08/16 00:26:30;;;;;;;19.27;9.07;;;;;;;;;;4950927;28;20513;-60
2023/08/16 00:28:57;;;;;;;17.63;9.18;;;;;;;;;;4951098;28;20445;-60
2023/08/16 00:31:23;;;;;;;16.45;9.32;;;;;;;;;;4949934;28;20486;-58
2023/08/16 00:33:50;;;;;;;23.60;9.93;;;;;;;;;;4951157;28;20027;-60
2023/08/16 00:36:16;;;;;;;17.65;9.27;;;;;;;;;;4950807;28;20391;-61
2023/08/16 00:38:45;;;;;;;17.20;9.20;;;;;;;;;;4950767;28;20027;-60
2023/08/16 00:41:11;;;;;;;17.92;9.20;;;;;;;;;;4950995;28;20031;-60
2023/08/16 00:43:37;;;;;;;17.95;9.32;;;;;;;;;;4950848;28;20031;-60
2023/08/16 00:46:03;;;;;;;19.20;9.30;;;;;;;;;;4950658;28;20031;-59
2023/08/16 00:48:31;;;;;;;17.58;9.50;;;;;;;;;;4951375;28;20383;-60
2023/08/16 00:50:57;;;;;;;21.27;9.63;;;;;;;;;;4950478;28;20040;-59
2023/08/16 00:53:24;;;;;;;17.05;9.13;;;;;;;;;;4950635;28;20031;-59
2023/08/16 00:55:50;;;;;;;18.05;8.57;;;;;;;;;;4950746;28;20102;-59
2023/08/16 00:58:16;;;;;;;18.80;10.13;;;;;;;;;;4950772;28;20475;-59
2023/08/16 01:00:42;;;;;;;21.10;9.73;;;;;;;;;;4956890;28;20085;-59
2023/08/16 01:03:09;;;;;;;18.10;9.57;;;;;;;;;;4960524;28;20067;-56
2023/08/16 01:05:35;;;;;;;19.45;9.43;;;;;;;;;;4955206;28;20027;-56
2023/08/16 01:08:02;;;;;;;17.33;8.45;;;;;;;;;;4954263;28;20023;-59
2023/08/16 01:10:36;;;;;;;17.45;9.07;;;;;;;;;;4952692;28;20023;-59
2023/08/16 01:13:12;;;;;;;16.77;8.75;;;;;;;;;;4953916;28;20024;-59
2023/08/16 01:15:41;;;;;;;17.58;9.10;;;;;;;;;;4953435;28;20028;-59
2023/08/16 01:18:07;;;;;;;18.00;9.05;;;;;;;;;;4953779;28;20073;-59
2023/08/16 01:20:35;;;;;;;18.05;8.98;;;;;;;;;;4953859;28;20479;-59
2023/08/16 01:23:01;;;;;;;17.33;9.40;;;;;;;;;;4954017;28;20031;-59
2023/08/16 01:25:35;;;;;;;20.23;10.43;;;;;;;;;;4953630;28;20039;-58
2023/08/16 01:28:02;;;;;;;18.20;9.50;;;;;;;;;;4952761;28;20063;-59
2023/08/16 01:30:29;;;;;;;16.65;9.75;;;;;;;;;;4953622;28;20024;-59
2023/08/16 01:32:55;;;;;;;19.02;9.85;;;;;;;;;;4953890;28;20083;-60
2023/08/16 01:35:21;;;;;;;17.77;9.50;;;;;;;;;;4952113;28;20066;-59
2023/08/16 01:37:47;;;;;;;17.63;8.90;;;;;;;;;;4953635;28;20031;-60
2023/08/16 01:40:13;;;;;;;22.23;9.10;;;;;;;;;;4953535;28;20036;-60
2023/08/16 01:42:43;;;;;;;16.33;8.43;;;;;;;;;;4953472;28;20027;-59
2023/08/16 01:45:10;;;;;;;23.35;9.25;;;;;;;;;;4951989;28;20101;-60
2023/08/16 01:47:37;;;;;;;20.20;9.20;;;;;;;;;;4953450;28;20492;-60
2023/08/16 01:50:04;;;;;;;18.60;9.43;;;;;;;;;;4953375;28;20039;-60
2023/08/16 01:52:30;;;;;;;19.73;9.35;;;;;;;;;;4953320;28;20407;-60
2023/08/16 01:54:56;;;;;;;18.65;8.63;;;;;;;;;;4953243;28;20428;-59
2023/08/16 01:57:22;;;;;;;18.42;9.20;;;;;;;;;;4952154;28;20119;-60
2023/08/16 01:59:48;;;;;;;17.25;8.55;;;;;;;;;;4953495;28;20427;-60
2023/08/16 02:02:14;;;;;;;18.27;8.95;;;;;;;;;;4953102;28;20081;-60
2023/08/16 02:04:39;;;;;;;16.80;8.90;;;;;;;;;;4951740;28;20059;-60
2023/08/16 02:07:05;;;;;;;19.83;9.02;;;;;;;;;;4953237;28;20099;-60
2023/08/16 02:09:31;;;;;;;16.55;9.48;;;;;;;;;;4952996;28;20062;-59
2023/08/16 02:11:57;;;;;;;17.55;8.98;;;;;;;;;;4953219;28;20113;-59
2023/08/16 02:14:24;;;;;;;19.67;9.50;;;;;;;;;;4951980;28;20024;-59
2023/08/16 02:16:50;;;;;;;17.40;9.18;;;;;;;;;;4952713;28;20552;-59
2023/08/16 02:19:16;;;;;;;18.95;9.50;;;;;;;;;;4952852;28;20035;-60
2023/08/16 02:21:42;;;;;;;19.23;8.68;;;;;;;;;;4952629;28;20376;-60
2023/08/16 02:24:09;;;;;;;19.35;10.07;;;;;;;;;;4952500;28;20034;-58
2023/08/16 02:26:35;;;;;;;23.75;9.85;;;;;;;;;;4952709;28;20080;-58
2023/08/16 02:29:01;;;;;;;20.67;10.30;;;;;;;;;;4952670;28;20032;-58
2023/08/16 02:31:27;;;;;;;23.67;11.35;;;;;;;;;;4952692;28;20032;-58
2023/08/16 02:33:53;;;;;;;20.55;10.60;;;;;;;;;;4951212;28;20039;-59
2023/08/16 02:36:19;;;;;;;21.23;11.45;;;;;;;;;;4952504;28;20038;-59
2023/08/16 02:38:45;;;;;;;20.85;11.50;;;;;;;;;;4952609;28;20027;-59
2023/08/16 02:41:11;;;;;;;21.65;11.82;;;;;;;;;;4952607;28;20035;-58
2023/08/16 02:43:37;;;;;;;22.95;11.35;;;;;;;;;;4952522;28;20110;-59
2023/08/16 02:46:03;;;;;;;21.83;11.60;;;;;;;;;;4952400;28;20024;-59
2023/08/16 02:48:29;;;;;;;22.77;11.95;;;;;;;;;;4952474;28;20130;-60
2023/08/16 02:50:55;;;;;;;21.20;11.57;;;;;;;;;;4952063;28;20047;-57
2023/08/16 02:53:20;;;;;;;20.38;11.55;;;;;;;;;;4951233;28;20110;-59
2023/08/16 02:55:46;;;;;;;21.40;11.95;;;;;;;;;;4952106;28;20019;-59
2023/08/16 02:58:12;;;;;;;20.70;11.85;;;;;;;;;;4952248;28;20125;-59
2023/08/16 03:00:39;;;;;;;24.17;14.70;;;;;;;;;;4960496;28;20093;-58
2023/08/16 03:03:06;;;;;;;29.58;23.63;;;;;;;;;;4960529;28;20127;-56
2023/08/16 03:05:32;;;;;;;31.83;24.35;;;;;;;;;;4951711;28;20106;-58
2023/08/16 03:07:58;;;;;;;27.00;24.17;;;;;;;;;;4952071;28;20066;-58
2023/08/16 03:10:24;;;;;;;28.23;25.23;;;;;;;;;;4953357;28;20372;-59
2023/08/16 03:12:50;;;;;;;32.15;29.13;;;;;;;;;;4971173;28;20022;-59
2023/08/16 03:15:16;;;;;;;32.38;29.10;;;;;;;;;;4970845;28;20042;-59
2023/08/16 03:17:42;;;;;;;30.60;27.63;;;;;;;;;;4970960;28;20102;-59
2023/08/16 03:20:09;;;;;;;31.00;27.83;;;;;;;;;;4971062;28;20581;-58
2023/08/16 03:22:35;;;;;;;30.67;27.80;;;;;;;;;;4971058;28;20027;-59
2023/08/16 03:25:01;;;;;;;30.05;26.98;;;;;;;;;;4970845;28;20505;-59
2023/08/16 03:27:27;;;;;;;31.25;27.58;;;;;;;;;;4970772;28;20027;-59
2023/08/16 03:29:53;;;;;;;32.92;29.42;;;;;;;;;;4971104;28;20117;-59
2023/08/16 03:32:19;;;;;;;31.52;28.45;;;;;;;;;;4971169;28;20026;-59
2023/08/16 03:34:45;;;;;;;30.25;27.13;;;;;;;;;;4969828;28;20031;-59
2023/08/16 03:37:11;;;;;;;32.55;29.02;;;;;;;;;;4971197;28;20118;-59
2023/08/16 03:39:37;;;;;;;31.15;27.85;;;;;;;;;;4970235;28;20034;-59
2023/08/16 03:42:03;;;;;;;33.00;29.63;;;;;;;;;;4970122;28;20030;-58
2023/08/16 03:44:29;;;;;;;30.40;27.35;;;;;;;;;;5006531;28;20033;-59
2023/08/16 03:46:57;;;;;;;32.35;29.00;;;;;;;;;;5052153;28;20485;-59
2023/08/16 03:49:23;;;;;;;31.30;28.20;;;;;;;;;;5051857;28;20108;-59
2023/08/16 03:51:49;;;;;;;29.13;26.27;;;;;;;;;;5050699;28;20032;-58
2023/08/16 03:54:15;;;;;;;30.02;26.85;;;;;;;;;;5050428;28;20021;-58
2023/08/16 03:56:41;;;;;;;30.17;27.10;;;;;;;;;;5051978;28;20482;-58
2023/08/16 03:59:07;;;;;;;29.70;26.90;;;;;;;;;;5051906;28;20053;-58
2023/08/16 04:01:33;;;;;;;30.52;26.27;;;;;;;;;;5051869;28;20124;-59
2023/08/16 04:03:59;;;;;;;29.48;26.30;;;;;;;;;;5051475;28;20027;-58
2023/08/16 04:06:25;;;;;;;29.75;26.75;;;;;;;;;;5051436;28;20105;-59
2023/08/16 04:08:51;;;;;;;31.73;27.40;;;;;;;;;;5051277;28;20028;-59
2023/08/16 04:11:17;;;;;;;31.17;27.83;;;;;;;;;;5051565;28;20033;-59
2023/08/16 04:13:43;;;;;;;29.95;26.90;;;;;;;;;;5051824;28;20400;-59
2023/08/16 04:16:09;;;;;;;29.77;26.77;;;;;;;;;;5051226;28;20465;-59
2023/08/16 04:18:35;;;;;;;32.60;29.13;;;;;;;;;;5051718;28;20104;-59
2023/08/16 04:21:01;;;;;;;30.83;27.50;;;;;;;;;;5051534;28;20052;-59
2023/08/16 04:23:27;;;;;;;30.10;27.05;;;;;;;;;;5051486;28;20060;-59
2023/08/16 04:25:53;;;;;;;29.83;26.73;;;;;;;;;;5051312;28;20036;-59
2023/08/16 04:28:19;;;;;;;30.58;27.05;;;;;;;;;;5050057;28;20025;-60
2023/08/16 04:30:45;;;;;;;29.73;26.55;;;;;;;;;;5049767;28;20067;-60
2023/08/16 04:33:11;;;;;;;29.98;26.83;;;;;;;;;;5051314;28;20067;-59
2023/08/16 04:35:37;;;;;;;32.28;26.88;;;;;;;;;;5051254;28;20066;-59
2023/08/16 04:38:03;;;;;;;32.28;26.75;;;;;;;;;;5054176;28;20036;-54
2023/08/16 04:40:29;;;;;;;32.75;26.02;;;;;;;;;;5057860;28;20029;-59
2023/08/16 04:42:55;;;;;;;30.42;26.38;;;;;;;;;;5062744;28;20025;-59
2023/08/16 04:45:21;;;;;;;32.38;26.55;;;;;;;;;;5067551;28;20052;-59
2023/08/16 04:47:47;;;;;;;29.33;25.73;;;;;;;;;;5061059;28;20036;-65
2023/08/16 04:50:13;;;;;;;30.33;26.15;;;;;;;;;;5057896;28;20063;-58
2023/08/16 04:52:39;;;;;;;30.10;24.63;;;;;;;;;;5057675;28;20175;-59
2023/08/16 04:55:06;;;;;;;28.00;25.08;;;;;;;;;;5057720;28;20017;-58
2023/08/16 04:57:32;;;;;;;29.83;26.55;;;;;;;;;;5056588;28;20111;-59
2023/08/16 04:59:58;;;;;;;31.38;26.55;;;;;;;;;;5057870;28;20072;-60
2023/08/16 05:02:24;;;;;;;26.35;23.55;;;;;;;;;;5057582;28;20017;-60
2023/08/16 05:04:50;;;;;;;27.88;24.90;;;;;;;;;;5056486;28;20435;-57
2023/08/16 05:07:16;;;;;;;27.13;23.73;;;;;;;;;;5057855;28;20039;-59
2023/08/16 05:09:42;;;;;;;30.77;27.48;;;;;;;;;;5057637;28;20124;-54
2023/08/16 05:12:08;;;;;;;27.70;23.98;;;;;;;;;;5057579;28;20017;-60
2023/08/16 05:14:34;;;;;;;28.20;25.20;;;;;;;;;;5057591;28;20028;-61
2023/08/16 05:17:00;;;;;;;30.52;26.45;;;;;;;;;;5057491;28;20028;-60
2023/08/16 05:19:26;;;;;;;28.05;24.85;;;;;;;;;;5057322;28;20500;-61
2023/08/16 05:21:52;;;;;;;27.30;24.45;;;;;;;;;;5056987;28;20025;-58
2023/08/16 05:24:18;;;;;;;26.67;23.88;;;;;;;;;;5056858;28;20021;-60
2023/08/16 05:26:44;;;;;;;30.67;25.15;;;;;;;;;;5057090;28;20111;-60
2023/08/16 05:29:10;;;;;;;26.13;22.73;;;;;;;;;;5057114;28;20029;-61
2023/08/16 05:31:36;;;;;;;26.73;23.65;;;;;;;;;;5057280;28;20028;-59
2023/08/16 05:34:03;;;;;;;26.35;23.60;;;;;;;;;;5056839;28;20023;-61
2023/08/16 05:36:29;;;;;;;27.30;24.40;;;;;;;;;;5057218;28;20055;-59
2023/08/16 05:38:55;;;;;;;27.50;24.60;;;;;;;;;;5057250;28;20453;-59
2023/08/16 05:41:21;;;;;;;25.30;22.42;;;;;;;;;;5055680;28;20051;-61
2023/08/16 05:43:47;;;;;;;24.52;22.02;;;;;;;;;;5061775;28;20553;-60
2023/08/16 05:46:13;;;;;;;26.23;21.80;;;;;;;;;;5067087;28;20037;-58
2023/08/16 05:48:39;;;;;;;28.50;22.25;;;;;;;;;;5058234;28;20040;-57
2023/08/16 05:51:06;;;;;;;28.30;22.90;;;;;;;;;;5052229;28;20062;-60
2023/08/16 05:53:31;;;;;;;26.38;21.60;;;;;;;;;;5055692;28;20370;-60
2023/08/16 05:55:57;;;;;;;29.77;25.63;;;;;;;;;;5064374;28;20032;-60
2023/08/16 05:58:24;;;;;;;28.45;22.63;;;;;;;;;;5058072;28;20421;-58
2023/08/16 06:00:52;;;;;;;24.45;21.83;;;;;;;;;;5054016;28;20079;-56
2023/08/16 06:03:18;;;;;;;25.27;20.83;;;;;;;;;;5054090;28;20025;-58
2023/08/16 06:05:44;;;;;;;27.60;21.52;;;;;;;;;;5053003;28;20051;-59
2023/08/16 06:08:10;;;;;;;24.00;19.63;;;;;;;;;;5052339;28;20029;-60
2023/08/16 06:10:36;;;;;;;24.95;20.10;;;;;;;;;;5052117;28;20406;-60
2023/08/16 06:13:02;;;;;;;23.60;18.55;;;;;;;;;;5053355;28;20040;-59
2023/08/16 06:15:28;;;;;;;25.90;19.17;;;;;;;;;;5053395;28;20021;-57
2023/08/16 06:17:54;;;;;;;28.48;21.75;;;;;;;;;;5052876;28;20166;-59
2023/08/16 06:20:20;;;;;;;26.58;20.67;;;;;;;;;;5054210;28;20616;-59
2023/08/16 06:22:46;;;;;;;27.65;22.77;;;;;;;;;;5054289;28;20628;-60
2023/08/16 06:25:12;;;;;;;31.75;23.83;;;;;;;;;;5051917;28;20127;-60
2023/08/16 06:27:39;;;;;;;28.40;24.13;;;;;;;;;;5053558;28;20028;-60
2023/08/16 06:30:06;;;;;;;30.25;25.38;;;;;;;;;;5053709;28;20028;-57
2023/08/16 06:32:32;;;;;;;33.40;29.90;;;;;;;;;;5053956;28;20017;-58
2023/08/16 06:34:58;;;;;;;37.50;30.75;;;;;;;;;;5053744;28;20032;-59
2023/08/16 06:37:24;;;;;;;32.47;28.95;;;;;;;;;;5053763;28;20021;-61
2023/08/16 06:39:50;;;;;;;33.42;29.85;;;;;;;;;;5053320;28;20025;-59
2023/08/16 06:42:16;;;;;;;35.90;32.40;;;;;;;;;;5053239;28;20025;-60
2023/08/16 06:44:42;;;;;;;34.92;31.27;;;;;;;;;;5052516;28;20032;-60
2023/08/16 06:47:08;;;;;;;35.67;31.98;;;;;;;;;;5053116;28;20029;-60
2023/08/16 06:49:34;;;;;;;36.03;31.77;;;;;;;;;;5052860;28;20029;-59
2023/08/16 06:52:00;;;;;;;36.13;31.95;;;;;;;;;;5052785;28;20511;-59
2023/08/16 06:54:26;;;;;;;34.80;31.05;;;;;;;;;;5052619;28;20045;-60
2023/08/16 06:56:57;;;;;;;33.60;30.17;;;;;;;;;;5052504;28;20032;-59
2023/08/16 06:59:23;;;;;;;36.30;29.63;;;;;;;;;;5021912;28;20016;-58
2023/08/16 07:01:50;;;;;;;34.90;31.25;;;;;;;;;;4950800;28;20361;-59
2023/08/16 07:04:16;;;;;;;35.13;28.35;;;;;;;;;;4951359;28;20031;-59
2023/08/16 07:06:42;;;;;;;30.48;27.25;;;;;;;;;;4951680;28;20479;-58
2023/08/16 07:09:08;;;;;;;33.58;28.50;;;;;;;;;;4936952;28;20027;-59
2023/08/16 07:11:34;;;;;;;34.60;27.15;;;;;;;;;;4932243;29;20115;-59
2023/08/16 07:14:00;;;;;;;31.95;26.85;;;;;;;;;;4932306;29;20055;-59
2023/08/16 07:16:26;;;;;;;35.20;29.98;;;;;;;;;;4937232;29;20504;-58
2023/08/16 07:18:52;;;;;;;33.80;30.15;;;;;;;;;;4951564;28;20081;-58
2023/08/16 07:21:18;;;;;;;37.00;30.80;;;;;;;;;;4951475;28;20108;-58
2023/08/16 07:23:44;;;;;;;35.65;31.35;;;;;;;;;;4951246;28;20054;-58
2023/08/16 07:26:10;;;;;;;38.50;31.35;;;;;;;;;;4951116;28;20031;-58
2023/08/16 07:28:36;;;;;;;36.85;32.33;;;;;;;;;;4951223;28;20442;-55
2023/08/16 07:31:02;;;;;;;36.65;29.92;;;;;;;;;;4951100;28;20023;-61
2023/08/16 07:33:32;;;;;;;37.03;31.02;;;;;;;;;;4946648;28;20031;-60
2023/08/16 07:36:01;;;;;;;36.40;31.20;;;;;;;;;;4932098;29;20023;-61
2023/08/16 07:38:32;;;;;;;38.78;33.63;;;;;;;;;;4932132;28;20081;-61
2023/08/16 07:40:58;;;;;;;46.05;35.58;;;;;;;;;;4931890;28;20123;-61
2023/08/16 07:43:25;;;;;;;40.50;35.28;;;;;;;;;;4932119;28;20425;-61
2023/08/16 07:45:54;;;;;;;40.03;35.63;;;;;;;;;;4931739;29;20031;-62
2023/08/16 07:48:20;;;;;;;40.55;35.72;;;;;;;;;;4931895;29;20084;-62
2023/08/16 07:50:46;;;;;;;39.13;34.92;;;;;;;;;;4931622;29;20086;-61
2023/08/16 07:53:13;;;;;;;41.95;34.80;;;;;;;;;;4932180;28;20078;-62
2023/08/16 07:55:39;;;;;;;39.00;32.65;;;;;;;;;;4931704;29;20098;-63
2023/08/16 07:58:05;;;;;;;37.33;33.38;;;;;;;;;;4935268;29;20028;-62
2023/08/16 08:00:32;;;;;;;39.80;33.63;;;;;;;;;;4947702;28;20019;-63
2023/08/16 08:02:59;;;;;;;39.33;33.28;;;;;;;;;;4949885;28;20078;-61
2023/08/16 08:05:25;;;;;;;37.42;31.45;;;;;;;;;;4931814;29;20027;-62
2023/08/16 08:07:55;;;;;;;34.50;30.98;;;;;;;;;;4931657;29;20055;-59
2023/08/16 08:10:21;;;;;;;34.35;30.65;;;;;;;;;;4938097;28;20032;-62
2023/08/16 08:12:47;;;;;;;33.97;30.25;;;;;;;;;;4931167;29;20031;-62
2023/08/16 08:15:13;;;;;;;36.20;30.60;;;;;;;;;;4931481;29;20061;-62
2023/08/16 08:17:40;;;;;;;36.45;30.17;;;;;;;;;;4930288;28;20051;-62
2023/08/16 08:20:06;;;;;;;34.47;30.10;;;;;;;;;;4941203;28;20081;-62
2023/08/16 08:22:32;;;;;;;34.72;30.00;;;;;;;;;;4938971;28;20499;-62
2023/08/16 08:24:58;;;;;;;37.53;31.73;;;;;;;;;;4935176;29;20051;-64
2023/08/16 08:27:24;;;;;;;36.95;31.00;;;;;;;;;;4946116;28;20035;-55
2023/08/16 08:29:50;;;;;;;32.92;29.40;;;;;;;;;;4931212;29;20027;-58
2023/08/16 08:32:17;;;;;;;32.25;28.85;;;;;;;;;;4934927;29;20508;-56
2023/08/16 08:34:43;;;;;;;31.73;27.77;;;;;;;;;;4939899;28;20065;-56
2023/08/16 08:37:09;;;;;;;30.13;26.80;;;;;;;;;;4939281;29;20125;-56
2023/08/16 08:39:35;;;;;;;29.92;26.67;;;;;;;;;;4941036;28;20494;-55
2023/08/16 08:42:07;;;;;;;28.38;25.38;;;;;;;;;;4940347;28;20030;-52
2023/08/16 08:44:33;;;;;;;27.45;24.58;;;;;;;;;;4938990;28;20031;-57
2023/08/16 08:47:05;;;;;;;26.98;23.48;;;;;;;;;;4940342;29;20027;-58
2023/08/16 08:49:31;;;;;;;26.45;23.63;;;;;;;;;;4944846;28;20134;-55
2023/08/16 08:51:58;;;;;;;26.15;23.35;;;;;;;;;;4942967;28;20049;-57
2023/08/16 08:54:25;;;;;;;26.33;22.17;;;;;;;;;;4947309;28;20051;-57
2023/08/16 08:56:52;;;;;;;24.15;21.65;;;;;;;;;;4950553;28;20550;-53
2023/08/16 08:59:18;;;;;;;24.85;22.02;;;;;;;;;;4950479;28;20085;-56
2023/08/16 09:01:45;;;;;;;25.38;22.02;;;;;;;;;;4949867;28;20027;-56
2023/08/16 09:04:13;;;;;;;23.10;20.75;;;;;;;;;;4949675;28;20029;-55
2023/08/16 09:06:39;;;;;;;22.80;20.50;;;;;;;;;;4950125;28;20019;-56
2023/08/16 09:09:07;;;;;;;23.20;20.90;;;;;;;;;;4950160;28;20263;-59
2023/08/16 09:11:33;;;;;;;21.50;19.40;;;;;;;;;;4949826;28;20031;-55
2023/08/16 09:14:02;;;;;;;23.02;20.73;;;;;;;;;;4949861;29;20031;-56
2023/08/16 09:16:28;;;;;;;22.00;19.70;;;;;;;;;;4949811;28;20116;-56
2023/08/16 09:18:54;;;;;;;22.58;20.25;;;;;;;;;;4949740;28;20035;-59
2023/08/16 09:21:24;;;;;;;22.25;20.05;;;;;;;;;;4948484;28;20046;-60
2023/08/16 09:23:59;;;;;;;21.50;19.25;;;;;;;;;;4950329;28;20019;-54
2023/08/16 09:26:28;;;;;;;22.08;19.77;;;;;;;;;;4953227;28;20494;-55
2023/08/16 09:28:58;;;;;;;21.50;19.15;;;;;;;;;;4953473;28;20027;-58
2023/08/16 09:31:24;;;;;;;22.38;20.13;;;;;;;;;;4953261;28;20035;-59
2023/08/16 09:33:54;;;;;;;22.90;20.50;;;;;;;;;;4953100;28;20033;-57
2023/08/16 09:36:20;;;;;;;22.05;19.75;;;;;;;;;;4953227;28;20027;-53
2023/08/16 09:38:47;;;;;;;22.23;20.02;;;;;;;;;;4954572;28;20595;-60
2023/08/16 09:41:22;;;;;;;22.02;19.77;;;;;;;;;;4962603;28;20139;-59
2023/08/16 09:43:48;;;;;;;22.98;20.63;;;;;;;;;;4954737;29;20024;-54
2023/08/16 09:46:20;;;;;;;27.10;23.10;;;;;;;;;;4951877;28;20114;-57
2023/08/16 09:48:46;;;;;;;21.50;19.30;;;;;;;;;;4953397;28;20093;-55
2023/08/16 09:51:12;;;;;;;22.65;20.30;;;;;;;;;;4952848;28;20031;-60
2023/08/16 09:53:46;;;;;;;22.02;19.83;;;;;;;;;;4947441;28;20040;-59
2023/08/16 09:56:12;;;;;;;22.35;20.00;;;;;;;;;;4947770;28;20026;-58
2023/08/16 09:58:39;;;;;;;21.42;19.30;;;;;;;;;;4952647;28;20494;-56
2023/08/16 10:01:05;;;;;;;22.05;19.58;;;;;;;;;;4952550;28;20395;-56
2023/08/16 10:03:31;;;;;;;20.88;18.13;;;;;;;;;;4951317;28;20027;-58
2023/08/16 10:05:57;;;;;;;20.58;18.38;;;;;;;;;;4952988;28;20506;-57
2023/08/16 10:08:23;;;;;;;21.10;18.27;;;;;;;;;;4957923;28;20038;-54
2023/08/16 10:10:49;;;;;;;21.52;18.13;;;;;;;;;;4965138;28;20433;-56
2023/08/16 10:13:16;;;;;;;19.85;17.73;;;;;;;;;;4972325;28;20023;-58
2023/08/16 10:15:43;;;;;;;20.83;17.30;;;;;;;;;;4972443;28;20019;-62
2023/08/16 10:18:12;;;;;;;20.10;17.88;;;;;;;;;;4971080;28;20030;-58
2023/08/16 10:20:40;;;;;;;19.42;17.33;;;;;;;;;;4972560;28;20035;-59
2023/08/16 10:23:07;;;;;;;19.45;17.38;;;;;;;;;;4954371;28;20023;-58
2023/08/16 10:25:46;;;;;;;19.30;17.30;;;;;;;;;;4933174;28;20034;-56
2023/08/16 10:28:12;;;;;;;19.23;17.23;;;;;;;;;;4931627;28;20024;-57
2023/08/16 10:30:40;;;;;;;19.85;17.77;;;;;;;;;;4932753;28;20028;-58
2023/08/16 10:33:13;;;;;;;19.65;17.45;;;;;;;;;;4932796;28;20019;-56
2023/08/16 10:35:40;;;;;;;18.73;16.20;;;;;;;;;;4930279;28;20028;-61
2023/08/16 10:38:06;;;;;;;17.98;14.93;;;;;;;;;;4932715;28;20024;-53
2023/08/16 10:40:32;;;;;;;17.02;13.10;;;;;;;;;;4933771;28;20569;-56
2023/08/16 10:42:59;;;;;;;17.08;11.63;;;;;;;;;;4933640;29;20514;-57
2023/08/16 10:45:30;;;;;;;16.80;11.18;;;;;;;;;;4932409;28;20035;-54
2023/08/16 10:47:56;;;;;;;17.10;10.85;;;;;;;;;;4932689;29;20121;-58
2023/08/16 10:50:32;;;;;;;17.67;10.93;;;;;;;;;;4932409;28;20087;-57
2023/08/16 10:52:59;;;;;;;18.33;11.00;;;;;;;;;;4932807;29;20030;-55
2023/08/16 10:55:25;;;;;;;17.50;11.10;;;;;;;;;;4968938;28;20374;-59
2023/08/16 10:57:55;;;;;;;17.55;10.90;;;;;;;;;;4956510;28;20027;-57
2023/08/16 11:00:30;;;;;;;16.00;10.40;;;;;;;;;;4965627;28;20039;-57
2023/08/16 11:02:56;;;;;;;16.80;10.80;;;;;;;;;;4936861;28;20036;-55
2023/08/16 11:05:24;;;;;;;17.63;11.57;;;;;;;;;;4970862;28;20099;-57
2023/08/16 11:07:50;;;;;;;16.27;10.50;;;;;;;;;;4970813;28;20676;-57
2023/08/16 11:10:16;;;;;;;17.48;10.00;;;;;;;;;;4971083;28;20856;-57
2023/08/16 11:12:42;;;;;;;16.98;10.10;;;;;;;;;;4971015;28;20479;-57
2023/08/16 11:15:09;;;;;;;17.20;10.05;;;;;;;;;;4980218;28;20087;-55
2023/08/16 11:17:35;;;;;;;19.65;12.93;;;;;;;;;;5052567;28;20032;-59
2023/08/16 11:20:04;;;;;;;19.10;10.45;;;;;;;;;;5052293;28;20033;-57
2023/08/16 11:22:31;;;;;;;18.17;10.60;;;;;;;;;;5052686;28;20429;-58
2023/08/16 11:25:00;;;;;;;15.52;9.55;;;;;;;;;;5051987;28;20039;-59
2023/08/16 11:27:28;;;;;;;17.90;10.00;;;;;;;;;;5050184;28;20033;-56
2023/08/16 11:29:54;;;;;;;14.88;9.30;;;;;;;;;;5050813;28;20045;-57
2023/08/16 11:32:35;;;;;;;15.98;9.73;;;;;;;;;;5055700;28;20025;-56
2023/08/16 11:35:05;;;;;;;15.82;9.75;;;;;;;;;;5058031;28;20020;-57
2023/08/16 11:37:31;;;;;;;17.38;10.07;;;;;;;;;;5050687;28;20021;-56
2023/08/16 11:40:00;;;;;;;16.60;10.48;;;;;;;;;;5051540;28;20037;-56
2023/08/16 11:42:30;;;;;;;16.10;10.05;;;;;;;;;;5051237;28;20399;-57
2023/08/16 11:44:56;;;;;;;16.35;10.30;;;;;;;;;;5051365;28;20025;-60
2023/08/16 11:47:22;;;;;;;15.70;10.38;;;;;;;;;;5051629;28;20508;-59
2023/08/16 11:49:49;;;;;;;17.20;10.65;;;;;;;;;;5051531;28;20025;-58
2023/08/16 11:52:20;;;;;;;16.13;10.48;;;;;;;;;;5023099;28;20058;-60
2023/08/16 11:54:46;;;;;;;16.13;10.90;;;;;;;;;;4970267;28;20046;-58
2023/08/16 11:57:16;;;;;;;15.32;10.48;;;;;;;;;;4970137;28;20057;-60
2023/08/16 11:59:42;;;;;;;16.20;10.50;;;;;;;;;;4968939;28;20027;-58
2023/08/16 12:02:09;;;;;;;16.92;11.70;;;;;;;;;;4956388;28;20119;-59
2023/08/16 12:04:35;;;;;;;17.27;11.00;;;;;;;;;;4950680;28;20023;-58
2023/08/16 12:07:01;;;;;;;16.42;10.95;;;;;;;;;;4950647;28;20085;-57
2023/08/16 12:09:30;;;;;;;17.23;11.63;;;;;;;;;;4950507;28;20491;-58
2023/08/16 12:11:56;;;;;;;18.50;11.30;;;;;;;;;;4950548;28;20031;-59
2023/08/16 12:14:22;;;;;;;17.48;11.70;;;;;;;;;;4950529;28;20480;-58
2023/08/16 12:16:48;;;;;;;16.98;11.48;;;;;;;;;;4950025;28;20081;-58
2023/08/16 12:19:18;;;;;;;16.60;11.20;;;;;;;;;;4950418;28;20023;-55
2023/08/16 12:21:44;;;;;;;16.48;12.07;;;;;;;;;;4950401;28;20108;-55
2023/08/16 12:24:10;;;;;;;16.30;12.40;;;;;;;;;;4949806;28;20429;-57
2023/08/16 12:26:36;;;;;;;16.15;12.07;;;;;;;;;;4949235;28;20023;-60
2023/08/16 12:29:02;;;;;;;16.80;12.10;;;;;;;;;;4950505;28;20395;-58
2023/08/16 12:31:28;;;;;;;16.40;12.00;;;;;;;;;;4950248;28;20030;-56
2023/08/16 12:33:54;;;;;;;16.92;12.10;;;;;;;;;;4950213;28;20035;-57
2023/08/16 12:36:20;;;;;;;17.20;12.45;;;;;;;;;;4950419;28;20035;-58
2023/08/16 12:38:46;;;;;;;17.50;11.85;;;;;;;;;;4946844;28;20059;-57
2023/08/16 12:41:12;;;;;;;18.48;12.63;;;;;;;;;;4931300;28;20027;-56
2023/08/16 12:43:38;;;;;;;17.75;12.57;;;;;;;;;;4932105;28;20032;-59
2023/08/16 12:46:06;;;;;;;16.83;13.05;;;;;;;;;;4930750;28;20063;-57
2023/08/16 12:48:32;;;;;;;16.88;12.93;;;;;;;;;;4932495;29;20510;-58
2023/08/16 12:50:59;;;;;;;16.55;12.90;;;;;;;;;;4930844;28;20036;-58
2023/08/16 12:53:25;;;;;;;16.08;12.85;;;;;;;;;;4933651;28;20031;-60
2023/08/16 12:55:51;;;;;;;18.45;13.25;;;;;;;;;;4930520;28;20027;-60
2023/08/16 12:58:17;;;;;;;17.85;13.75;;;;;;;;;;4931346;28;20032;-59
2023/08/16 13:00:43;;;;;;;17.90;14.02;;;;;;;;;;4938074;28;20085;-61
2023/08/16 13:03:08;;;;;;;18.33;13.07;;;;;;;;;;4956719;29;20172;-59
2023/08/16 13:05:35;;;;;;;17.88;13.90;;;;;;;;;;4952016;29;20538;-56
2023/08/16 13:08:01;;;;;;;17.77;13.40;;;;;;;;;;4953392;28;20123;-61
2023/08/16 13:10:28;;;;;;;17.40;13.77;;;;;;;;;;4952835;28;20555;-60
2023/08/16 13:12:54;;;;;;;16.85;13.18;;;;;;;;;;4951590;28;20106;-60
2023/08/16 13:15:20;;;;;;;17.73;14.10;;;;;;;;;;4953050;29;20067;-62
2023/08/16 13:17:46;;;;;;;18.17;13.60;;;;;;;;;;4951735;28;20027;-58
2023/08/16 13:20:12;;;;;;;16.75;12.93;;;;;;;;;;4953190;28;20388;-58
2023/08/16 13:22:38;;;;;;;17.42;13.35;;;;;;;;;;4952968;29;20114;-56
2023/08/16 13:25:06;;;;;;;16.23;12.75;;;;;;;;;;4950093;28;20031;-59
2023/08/16 13:27:32;;;;;;;18.88;14.07;;;;;;;;;;4936977;28;20031;-59
2023/08/16 13:29:58;;;;;;;16.25;13.35;;;;;;;;;;4933633;28;20484;-59
2023/08/16 13:32:24;;;;;;;18.00;14.02;;;;;;;;;;4933773;29;20514;-59
2023/08/16 13:34:50;;;;;;;17.13;13.50;;;;;;;;;;4933659;28;20039;-60
2023/08/16 13:37:16;;;;;;;17.55;13.65;;;;;;;;;;4934483;28;20020;-58
2023/08/16 13:39:42;;;;;;;16.48;13.10;;;;;;;;;;4933569;29;20031;-59
2023/08/16 13:42:08;;;;;;;16.05;13.23;;;;;;;;;;4933475;28;20392;-59
2023/08/16 13:44:34;;;;;;;16.90;13.65;;;;;;;;;;4933330;28;20125;-58
2023/08/16 13:47:00;;;;;;;17.08;14.15;;;;;;;;;;4933594;28;20027;-59
2023/08/16 13:49:26;;;;;;;16.60;13.10;;;;;;;;;;4941922;28;20064;-60
2023/08/16 13:51:52;;;;;;;17.00;13.90;;;;;;;;;;4943462;28;20027;-59
2023/08/16 13:54:18;;;;;;;16.75;13.70;;;;;;;;;;4941007;28;20154;-58
2023/08/16 13:56:44;;;;;;;16.95;13.73;;;;;;;;;;4949734;29;20023;-59
2023/08/16 13:59:10;;;;;;;18.08;13.73;;;;;;;;;;4942074;28;20028;-58
2023/08/16 14:01:37;;;;;;;17.05;13.27;;;;;;;;;;4600350;28;9999834;-61
2023/08/16 14:04:03;;;;;;;17.50;13.43;;;;;;;;;;4943278;28;20051;-58
2023/08/16 14:06:29;;;;;;;18.00;13.60;;;;;;;;;;4940871;28;20106;-59
2023/08/16 14:08:55;;;;;;;17.10;13.10;;;;;;;;;;4936634;28;20023;-58
2023/08/16 14:11:21;;;;;;;17.98;13.55;;;;;;;;;;4947994;28;20047;-59
2023/08/16 14:13:48;;;;;;;23.50;17.55;;;;;;;;;;4944994;28;20139;-57
2023/08/16 14:16:14;;;;;;;16.70;12.87;;;;;;;;;;4929771;29;20058;-58